createdAt,value
2017-09-19T00:00:36.147Z,39.41
2017-09-19T00:01:45.483Z,39.51
2017-09-19T00:02:54.179Z,39.41
2017-09-19T00:04:03.523Z,39.41
2017-09-19T00:05:13.186Z,39.41
2017-09-19T00:06:22.206Z,39.31
2017-09-19T00:07:30.901Z,39.31
2017-09-19T00:08:39.917Z,39.41
2017-09-19T00:09:49.261Z,39.29
2017-09-19T00:10:58.605Z,39.31
2017-09-19T00:12:07.943Z,39.31
2017-09-19T00:13:17.278Z,39.31
2017-09-19T00:14:26.298Z,39.51
2017-09-19T00:15:34.994Z,39.7
2017-09-19T00:16:43.690Z,39.51
2017-09-19T00:17:53.029Z,39.51
2017-09-19T00:19:02.690Z,39.49
2017-09-19T00:20:11.708Z,39.61
2017-09-19T00:21:20.406Z,39.7
2017-09-19T00:22:29.435Z,39.68
2017-09-19T00:23:38.767Z,39.7
2017-09-19T00:24:48.104Z,39.49
2017-09-19T00:25:57.441Z,39.49
2017-09-19T00:27:06.779Z,39.68
2017-09-19T00:28:15.476Z,39.51
2017-09-19T00:29:25.132Z,39.68
2017-09-19T00:30:34.149Z,39.39
2017-09-19T00:31:43.811Z,39.68
2017-09-19T00:32:52.838Z,39.2
2017-09-19T00:34:02.179Z,39.68
2017-09-19T00:35:11.517Z,39.59
2017-09-19T00:36:20.863Z,39.68
2017-09-19T00:37:29.561Z,39.59
2017-09-19T00:38:39.216Z,39.68
2017-09-19T00:39:48.232Z,39.49
2017-09-19T00:40:57.567Z,39.59
2017-09-19T00:42:07.243Z,39.59
2017-09-19T00:43:16.582Z,39.68
2017-09-19T00:44:25.919Z,39.68
2017-09-19T00:45:34.618Z,39.59
2017-09-19T00:46:44.276Z,39.68
2017-09-19T00:47:53.928Z,39.7
2017-09-19T00:49:03.268Z,39.39
2017-09-19T00:50:12.603Z,39.39
2017-09-19T00:51:21.299Z,39.29
2017-09-19T00:52:29.998Z,39.29
2017-09-19T00:53:39.655Z,39.49
2017-09-19T00:54:49.318Z,39.29
2017-09-19T00:55:58.655Z,39.39
2017-09-19T00:57:07.991Z,39.39
2017-09-19T00:58:16.688Z,39.49
2017-09-19T00:59:26.343Z,39.49
2017-09-19T01:00:35.036Z,39.39
2017-09-19T01:01:44.373Z,39.59
2017-09-19T01:02:53.706Z,39.39
2017-09-19T01:04:03.047Z,39.39
2017-09-19T01:05:12.064Z,39.29
2017-09-19T01:06:21.400Z,39.29
2017-09-19T01:07:30.097Z,39.39
2017-09-19T01:08:39.437Z,39.29
2017-09-19T01:09:48.774Z,39.49
2017-09-19T01:10:58.114Z,39.59
2017-09-19T01:12:07.452Z,39.39
2017-09-19T01:13:16.784Z,39.39
2017-09-19T01:14:25.800Z,40.16
2017-09-19T01:15:35.134Z,39.97
2017-09-19T01:16:43.832Z,39.78
2017-09-19T01:17:52.532Z,39.39
2017-09-19T01:19:01.869Z,39.68
2017-09-19T01:20:11.207Z,39.49
2017-09-19T01:21:20.228Z,39.59
2017-09-19T01:22:29.564Z,39.68
2017-09-19T01:23:38.894Z,39.59
2017-09-19T01:24:47.593Z,39.49
2017-09-19T01:25:57.249Z,39.78
2017-09-19T01:27:06.269Z,39.2
2017-09-19T01:28:15.932Z,39.97
2017-09-19T01:29:25.586Z,39.68
2017-09-19T01:30:34.281Z,39.49
2017-09-19T01:31:43.617Z,39.87
2017-09-19T01:32:52.965Z,39.87
2017-09-19T01:34:02.623Z,39.49
2017-09-19T01:35:11.639Z,39.49
2017-09-19T01:36:20.658Z,39.78
2017-09-19T01:37:29.999Z,39.49
2017-09-19T01:38:39.026Z,39.59
2017-09-19T01:39:49.016Z,39.59
2017-09-19T01:40:57.711Z,39.59
2017-09-19T01:42:06.726Z,39.59
2017-09-19T01:43:15.422Z,39.78
2017-09-19T01:44:24.754Z,39.78
2017-09-19T01:45:34.088Z,39.39
2017-09-19T01:46:43.746Z,39.59
2017-09-19T01:47:52.761Z,39.59
2017-09-19T01:49:01.457Z,39.49
2017-09-19T01:50:10.789Z,39.78
2017-09-19T01:51:19.488Z,39.78
2017-09-19T01:52:28.185Z,39.78
2017-09-19T01:53:37.520Z,39.39
2017-09-19T01:54:46.221Z,39.49
2017-09-19T01:55:56.201Z,39.59
2017-09-19T01:57:04.898Z,39.49
2017-09-19T01:58:14.565Z,39.49
2017-09-19T01:59:24.221Z,39.49
2017-09-19T02:00:32.921Z,39.87
2017-09-19T02:01:41.937Z,39.39
2017-09-19T02:02:51.270Z,39.68
2017-09-19T02:03:59.965Z,39.68
2017-09-19T02:05:08.664Z,39.68
2017-09-19T02:06:17.996Z,40.07
2017-09-19T02:07:27.328Z,40.07
2017-09-19T02:08:36.985Z,39.68
2017-09-19T02:09:46.324Z,39.68
2017-09-19T02:10:55.660Z,39.78
2017-09-19T02:12:05.314Z,39.68
2017-09-19T02:13:14.011Z,39.59
2017-09-19T02:14:23.028Z,39.68
2017-09-19T02:15:32.044Z,39.97
2017-09-19T02:16:40.743Z,39.97
2017-09-19T02:17:50.082Z,39.59
2017-09-19T02:18:58.779Z,39.59
2017-09-19T02:20:08.757Z,39.59
2017-09-19T02:21:17.772Z,39.59
2017-09-19T02:22:27.443Z,39.59
2017-09-19T02:23:36.142Z,39.68
2017-09-19T02:24:45.161Z,39.59
2017-09-19T02:25:54.492Z,39.59
2017-09-19T02:27:03.509Z,39.97
2017-09-19T02:28:12.526Z,39.59
2017-09-19T02:29:21.859Z,39.68
2017-09-19T02:30:30.876Z,39.68
2017-09-19T02:31:40.540Z,39.78
2017-09-19T02:32:49.556Z,39.78
2017-09-19T02:33:58.928Z,39.78
2017-09-19T02:35:07.947Z,40.07
2017-09-19T02:36:17.296Z,39.59
2017-09-19T02:37:26.315Z,39.68
2017-09-19T02:38:35.646Z,39.68
2017-09-19T02:39:44.671Z,39.78
2017-09-19T02:40:54.368Z,39.59
2017-09-19T02:42:03.384Z,39.87
2017-09-19T02:43:12.405Z,39.59
2017-09-19T02:44:21.422Z,39.78
2017-09-19T02:45:30.758Z,39.78
2017-09-19T02:46:40.417Z,39.87
2017-09-19T02:47:49.434Z,39.78
2017-09-19T02:48:59.092Z,39.59
2017-09-19T02:50:07.790Z,39.87
2017-09-19T02:51:17.445Z,39.68
2017-09-19T02:52:26.466Z,39.49
2017-09-19T02:53:35.492Z,39.78
2017-09-19T02:54:44.508Z,39.68
2017-09-19T02:55:53.849Z,39.68
2017-09-19T02:57:03.511Z,39.68
2017-09-19T02:58:12.850Z,39.68
2017-09-19T02:59:22.196Z,39.78
2017-09-19T03:00:31.210Z,40.07
2017-09-19T03:01:40.553Z,39.59
2017-09-19T03:02:50.212Z,39.59
2017-09-19T03:03:58.910Z,39.68
2017-09-19T03:05:08.566Z,39.97
2017-09-19T03:06:17.588Z,39.68
2017-09-19T03:07:26.925Z,39.97
2017-09-19T03:08:35.945Z,39.97
2017-09-19T03:09:45.277Z,39.78
2017-09-19T03:10:54.616Z,39.68
2017-09-19T03:12:03.635Z,39.68
2017-09-19T03:13:12.974Z,39.78
2017-09-19T03:14:21.999Z,39.59
2017-09-19T03:15:31.016Z,39.78
2017-09-19T03:16:39.710Z,40.07
2017-09-19T03:17:49.049Z,39.97
2017-09-19T03:18:58.387Z,39.78
2017-09-19T03:20:07.093Z,39.68
2017-09-19T03:21:16.427Z,40.16
2017-09-19T03:22:26.088Z,39.87
2017-09-19T03:23:35.102Z,39.68
2017-09-19T03:24:44.434Z,39.68
2017-09-19T03:25:53.775Z,40.07
2017-09-19T03:27:02.793Z,39.68
2017-09-19T03:28:12.133Z,40.26
2017-09-19T03:29:21.467Z,39.87
2017-09-19T03:30:30.488Z,39.68
2017-09-19T03:31:39.503Z,39.78
2017-09-19T03:32:48.200Z,40.16
2017-09-19T03:33:57.538Z,40.26
2017-09-19T03:35:07.192Z,40.26
2017-09-19T03:36:15.886Z,39.68
2017-09-19T03:37:24.581Z,39.68
2017-09-19T03:38:33.917Z,40.16
2017-09-19T03:39:43.259Z,40.16
2017-09-19T03:40:52.268Z,40.07
2017-09-19T03:42:01.287Z,39.68
2017-09-19T03:43:10.309Z,39.78
2017-09-19T03:44:20.288Z,40.07
2017-09-19T03:45:29.944Z,40.07
2017-09-19T03:46:38.644Z,39.59
2017-09-19T03:47:48.300Z,39.78
2017-09-19T03:48:56.996Z,39.87
2017-09-19T03:50:06.011Z,39.97
2017-09-19T03:51:15.027Z,39.68
2017-09-19T03:52:24.045Z,39.68
2017-09-19T03:53:33.380Z,39.78
2017-09-19T03:54:42.399Z,40.26
2017-09-19T03:55:51.423Z,40.16
2017-09-19T03:57:00.762Z,39.56
2017-09-19T03:58:10.100Z,39.78
2017-09-19T03:59:19.437Z,39.78
2017-09-19T04:00:29.094Z,40.07
2017-09-19T04:01:38.110Z,39.87
2017-09-19T04:02:47.126Z,39.68
2017-09-19T04:03:56.142Z,40.36
2017-09-19T04:05:04.841Z,39.78
2017-09-19T04:06:14.504Z,39.68
2017-09-19T04:07:24.158Z,40.26
2017-09-19T04:08:33.186Z,39.68
2017-09-19T04:09:42.841Z,39.78
2017-09-19T04:10:52.190Z,39.68
2017-09-19T04:12:01.527Z,39.78
2017-09-19T04:13:10.542Z,39.78
2017-09-19T04:14:19.240Z,39.56
2017-09-19T04:15:28.587Z,40.45
2017-09-19T04:16:37.608Z,39.78
2017-09-19T04:17:46.623Z,39.78
2017-09-19T04:18:55.317Z,39.78
2017-09-19T04:20:04.330Z,39.78
2017-09-19T04:21:13.345Z,39.95
2017-09-19T04:22:23.002Z,39.68
2017-09-19T04:23:32.018Z,40.07
2017-09-19T04:24:41.673Z,39.68
2017-09-19T04:25:51.011Z,39.68
2017-09-19T04:27:00.661Z,40.16
2017-09-19T04:28:09.998Z,39.78
2017-09-19T04:29:19.340Z,39.59
2017-09-19T04:30:28.680Z,40.16
2017-09-19T04:31:37.695Z,39.68
2017-09-19T04:32:47.352Z,40.16
2017-09-19T04:33:57.010Z,40.07
2017-09-19T04:35:06.667Z,40.07
2017-09-19T04:36:15.684Z,40.16
2017-09-19T04:37:24.700Z,39.87
2017-09-19T04:38:33.721Z,39.68
2017-09-19T04:39:42.734Z,39.68
2017-09-19T04:40:52.067Z,39.78
2017-09-19T04:42:01.403Z,39.78
2017-09-19T04:43:11.384Z,39.68
2017-09-19T04:44:20.724Z,39.87
2017-09-19T04:45:29.420Z,39.68
2017-09-19T04:46:38.437Z,39.87
2017-09-19T04:47:47.453Z,39.87
2017-09-19T04:48:57.428Z,39.97
2017-09-19T04:50:06.124Z,39.68
2017-09-19T04:51:14.822Z,39.68
2017-09-19T04:52:24.482Z,39.68
2017-09-19T04:53:33.497Z,39.68
2017-09-19T04:54:42.191Z,39.68
2017-09-19T04:55:51.216Z,39.78
2017-09-19T04:57:00.554Z,40.16
2017-09-19T04:58:09.567Z,40.26
2017-09-19T04:59:18.579Z,39.68
2017-09-19T05:00:27.596Z,40.16
2017-09-19T05:01:37.253Z,39.97
2017-09-19T05:02:45.952Z,39.68
2017-09-19T05:03:54.966Z,39.68
2017-09-19T05:05:03.660Z,39.78
2017-09-19T05:06:12.681Z,39.68
2017-09-19T05:07:22.018Z,40.55
2017-09-19T05:08:30.714Z,40.55
2017-09-19T05:09:39.732Z,40.84
2017-09-19T05:10:48.749Z,40.74
2017-09-19T05:11:57.765Z,40.36
2017-09-19T05:13:06.463Z,40.16
2017-09-19T05:14:15.801Z,40.36
2017-09-19T05:15:25.463Z,40.26
2017-09-19T05:16:34.807Z,40.36
2017-09-19T05:17:43.825Z,40.36
2017-09-19T05:18:52.841Z,41.22
2017-09-19T05:20:01.540Z,40.74
2017-09-19T05:21:11.517Z,40.74
2017-09-19T05:22:20.855Z,41.32
2017-09-19T05:23:30.191Z,40.74
2017-09-19T05:24:39.525Z,40.45
2017-09-19T05:25:48.224Z,40.55
2017-09-19T05:26:57.281Z,40.84
2017-09-19T05:28:06.301Z,40.74
2017-09-19T05:29:15.957Z,40.26
2017-09-19T05:30:24.653Z,40.16
2017-09-19T05:31:33.352Z,41.03
2017-09-19T05:32:43.006Z,40.16
2017-09-19T05:33:52.020Z,40.55
2017-09-19T05:35:01.358Z,40.55
2017-09-19T05:36:10.058Z,40.45
2017-09-19T05:37:19.394Z,40.26
2017-09-19T05:38:29.051Z,40.36
2017-09-19T05:39:38.398Z,40.45
2017-09-19T05:40:47.095Z,40.16
2017-09-19T05:41:56.754Z,40.36
2017-09-19T05:43:05.769Z,40.36
2017-09-19T05:44:15.106Z,40.37
2017-09-19T05:45:24.448Z,40.45
2017-09-19T05:46:33.469Z,40.16
2017-09-19T05:47:43.141Z,40.74
2017-09-19T05:48:52.476Z,40.94
2017-09-19T05:50:01.814Z,40.07
2017-09-19T05:51:10.511Z,40.45
2017-09-19T05:52:19.530Z,41.22
2017-09-19T05:53:28.543Z,41.32
2017-09-19T05:54:37.555Z,40.86
2017-09-19T05:55:46.894Z,41.44
2017-09-19T05:56:56.550Z,41.03
2017-09-19T05:58:05.244Z,41.63
2017-09-19T05:59:14.264Z,41.44
2017-09-19T06:00:23.281Z,41.53
2017-09-19T06:01:32.614Z,41.53
2017-09-19T06:02:41.629Z,42.02
2017-09-19T06:03:50.652Z,41.82
2017-09-19T06:05:00.302Z,42.02
2017-09-19T06:06:09.637Z,42.02
2017-09-19T06:07:18.651Z,41.82
2017-09-19T06:08:27.664Z,42.21
2017-09-19T06:09:37.638Z,42.4
2017-09-19T06:10:46.973Z,42.02
2017-09-19T06:11:55.986Z,41.63
2017-09-19T06:13:05.324Z,41.63
2017-09-19T06:14:14.654Z,41.44
2017-09-19T06:15:23.668Z,41.92
2017-09-19T06:16:32.364Z,41.72
2017-09-19T06:17:42.023Z,41.82
2017-09-19T06:18:51.673Z,41.24
2017-09-19T06:20:01.007Z,41.24
2017-09-19T06:21:10.027Z,41.34
2017-09-19T06:22:19.041Z,41.24
2017-09-19T06:23:27.739Z,41.14
2017-09-19T06:24:37.712Z,40.76
2017-09-19T06:25:46.729Z,40.86
2017-09-19T06:26:56.392Z,40.86
2017-09-19T06:28:05.729Z,40.66
2017-09-19T06:29:15.068Z,40.47
2017-09-19T06:30:24.082Z,40.66
2017-09-19T06:31:33.127Z,40.57
2017-09-19T06:32:41.830Z,40.76
2017-09-19T06:33:50.524Z,40.47
2017-09-19T06:34:59.218Z,40.66
2017-09-19T06:36:07.912Z,40.47
2017-09-19T06:37:16.927Z,40.76
2017-09-19T06:38:25.940Z,40.57
2017-09-19T06:39:34.958Z,40.57
2017-09-19T06:40:43.976Z,40.86
2017-09-19T06:41:53.332Z,40.28
2017-09-19T06:43:02.349Z,40.28
2017-09-19T06:44:11.685Z,40.47
2017-09-19T06:45:20.703Z,40.76
2017-09-19T06:46:29.718Z,40.37
2017-09-19T06:47:39.697Z,40.37
2017-09-19T06:48:48.712Z,40.37
2017-09-19T06:49:57.407Z,40.47
2017-09-19T06:51:06.421Z,40.19
2017-09-19T06:52:15.755Z,40.28
2017-09-19T06:53:24.769Z,40.47
2017-09-19T06:54:33.782Z,40.76
2017-09-19T06:55:43.119Z,40.86
2017-09-19T06:56:52.454Z,41.05
2017-09-19T06:58:01.151Z,41.05
2017-09-19T06:59:10.168Z,40.37
2017-09-19T07:00:19.187Z,40.37
2017-09-19T07:01:28.205Z,40.28
2017-09-19T07:02:37.544Z,40.28
2017-09-19T07:03:46.564Z,40.86
2017-09-19T07:04:55.252Z,40.95
2017-09-19T07:06:04.265Z,40.57
2017-09-19T07:07:13.601Z,40.28
2017-09-19T07:08:22.299Z,40.95
2017-09-19T07:09:31.311Z,40.37
2017-09-19T07:10:40.326Z,40.28
2017-09-19T07:11:49.347Z,40.66
2017-09-19T07:12:58.683Z,40.28
2017-09-19T07:14:08.017Z,40.76
2017-09-19T07:15:17.356Z,40.47
2017-09-19T07:16:26.053Z,40.47
2017-09-19T07:17:34.745Z,40.47
2017-09-19T07:18:44.078Z,40.47
2017-09-19T07:19:53.092Z,40.37
2017-09-19T07:21:01.787Z,40.47
2017-09-19T07:22:10.801Z,40.37
2017-09-19T07:23:20.144Z,40.19
2017-09-19T07:24:29.481Z,40.37
2017-09-19T07:25:38.817Z,40.66
2017-09-19T07:26:47.837Z,40.28
2017-09-19T07:27:57.173Z,40.28
2017-09-19T07:29:06.514Z,40.66
2017-09-19T07:30:15.854Z,40.19
2017-09-19T07:31:25.189Z,40.28
2017-09-19T07:32:34.211Z,40.76
2017-09-19T07:33:43.230Z,40.19
2017-09-19T07:34:51.929Z,40.37
2017-09-19T07:36:01.269Z,40.86
2017-09-19T07:37:10.295Z,40.19
2017-09-19T07:38:19.311Z,40.37
2017-09-19T07:39:28.649Z,40.28
2017-09-19T07:40:38.321Z,40.3
2017-09-19T07:41:47.322Z,40.37
2017-09-19T07:42:56.344Z,40.97
2017-09-19T07:44:05.683Z,40.59
2017-09-19T07:45:14.381Z,40.39
2017-09-19T07:46:23.718Z,40.59
2017-09-19T07:47:33.057Z,40.49
2017-09-19T07:48:42.397Z,40.78
2017-09-19T07:49:51.415Z,40.49
2017-09-19T07:51:00.115Z,40.11
2017-09-19T07:52:09.455Z,40.01
2017-09-19T07:53:18.155Z,40.11
2017-09-19T07:54:27.497Z,40.59
2017-09-19T07:55:36.513Z,40.2
2017-09-19T07:56:45.219Z,40.11
2017-09-19T07:57:54.559Z,40.69
2017-09-19T07:59:03.891Z,40.11
2017-09-19T08:00:13.262Z,40.01
2017-09-19T08:01:22.280Z,40.59
2017-09-19T08:02:31.298Z,40.39
2017-09-19T08:03:40.958Z,40.69
2017-09-19T08:04:49.972Z,40.11
2017-09-19T08:05:58.986Z,40.59
2017-09-19T08:07:08.001Z,40.3
2017-09-19T08:08:17.982Z,40.49
2017-09-19T08:09:26.678Z,40.97
2017-09-19T08:10:35.374Z,40.69
2017-09-19T08:11:44.390Z,40.11
2017-09-19T08:12:53.725Z,40.39
2017-09-19T08:14:03.064Z,40.3
2017-09-19T08:15:12.718Z,40.78
2017-09-19T08:16:22.372Z,40.78
2017-09-19T08:17:31.729Z,40.39
2017-09-19T08:18:41.799Z,40.39
2017-09-19T08:19:51.844Z,41.07
2017-09-19T08:21:00.539Z,40.3
2017-09-19T08:22:09.873Z,40.3
2017-09-19T08:23:18.564Z,40.39
2017-09-19T08:24:27.583Z,40.78
2017-09-19T08:25:37.233Z,40.39
2017-09-19T08:26:46.900Z,40.39
2017-09-19T08:27:55.917Z,40.2
2017-09-19T08:29:05.250Z,40.88
2017-09-19T08:30:14.264Z,40.2
2017-09-19T08:31:23.278Z,40.39
2017-09-19T08:32:32.614Z,40.3
2017-09-19T08:33:41.311Z,40.97
2017-09-19T08:34:50.649Z,40.69
2017-09-19T08:35:59.345Z,40.69
2017-09-19T08:37:08.368Z,40.59
2017-09-19T08:38:17.704Z,40.11
2017-09-19T08:39:26.716Z,39.72
2017-09-19T08:40:35.733Z,40.3
2017-09-19T08:41:45.388Z,39.72
2017-09-19T08:42:55.041Z,40.3
2017-09-19T08:44:04.381Z,39.72
2017-09-19T08:45:13.075Z,40.3
2017-09-19T08:46:22.092Z,40.11
2017-09-19T08:47:31.747Z,40.01
2017-09-19T08:48:41.081Z,39.72
2017-09-19T08:49:49.777Z,40.01
2017-09-19T08:50:58.472Z,39.72
2017-09-19T08:52:07.168Z,40.2
2017-09-19T08:53:15.862Z,39.74
2017-09-19T08:54:24.558Z,39.45
2017-09-19T08:55:33.574Z,39.26
2017-09-19T08:56:42.587Z,38.97
2017-09-19T08:57:51.921Z,39.16
2017-09-19T08:59:00.932Z,38.97
2017-09-19T09:00:09.951Z,38.97
2017-09-19T09:01:19.607Z,39.06
2017-09-19T09:02:28.951Z,39.06
2017-09-19T09:03:37.965Z,38.78
2017-09-19T09:04:46.663Z,39.06
2017-09-19T09:05:55.997Z,38.78
2017-09-19T09:07:05.011Z,38.87
2017-09-19T09:08:14.353Z,38.87
2017-09-19T09:09:23.693Z,38.78
2017-09-19T09:10:33.043Z,38.87
2017-09-19T09:11:42.696Z,38.78
2017-09-19T09:12:51.714Z,38.68
2017-09-19T09:14:01.366Z,38.78
2017-09-19T09:15:10.383Z,38.68
2017-09-19T09:16:19.396Z,38.68
2017-09-19T09:17:28.412Z,38.6
2017-09-19T09:18:37.108Z,38.78
2017-09-19T09:19:46.123Z,38.49
2017-09-19T09:20:56.096Z,38.49
2017-09-19T09:22:04.793Z,38.51
2017-09-19T09:23:14.132Z,38.7
2017-09-19T09:24:23.464Z,38.49
2017-09-19T09:25:32.478Z,38.51
2017-09-19T09:26:41.493Z,38.51
2017-09-19T09:27:50.830Z,38.51
2017-09-19T09:28:59.854Z,38.31
2017-09-19T09:30:08.549Z,38.6
2017-09-19T09:31:17.562Z,38.51
2017-09-19T09:32:27.217Z,38.51
2017-09-19T09:33:35.914Z,38.51
2017-09-19T09:34:44.932Z,38.51
2017-09-19T09:35:54.586Z,38.51
2017-09-19T09:37:04.562Z,38.31
2017-09-19T09:38:13.576Z,38.51
2017-09-19T09:39:22.271Z,38.21
2017-09-19T09:40:32.244Z,38.31
2017-09-19T09:41:41.259Z,38.41
2017-09-19T09:42:49.953Z,38.6
2017-09-19T09:43:59.290Z,38.68
2017-09-19T09:45:08.630Z,38.87
2017-09-19T09:46:17.967Z,38.68
2017-09-19T09:47:27.301Z,38.78
2017-09-19T09:48:37.280Z,38.78
2017-09-19T09:49:46.295Z,38.78
2017-09-19T09:50:55.631Z,38.79
2017-09-19T09:52:05.288Z,38.68
2017-09-19T09:53:13.988Z,38.41
2017-09-19T09:54:23.001Z,38.02
2017-09-19T09:55:32.016Z,38.51
2017-09-19T09:56:40.721Z,38.21
2017-09-19T09:57:49.418Z,38.02
2017-09-19T09:58:58.113Z,37.83
2017-09-19T10:00:07.763Z,37.56
2017-09-19T10:01:16.461Z,37.75
2017-09-19T10:02:26.435Z,37.56
2017-09-19T10:03:35.449Z,37.08
2017-09-19T10:04:44.471Z,37.27
2017-09-19T10:05:53.483Z,36.88
2017-09-19T10:07:03.470Z,36.52
2017-09-19T10:08:12.805Z,36.32
2017-09-19T10:09:22.145Z,36.03
2017-09-19T10:10:31.158Z,35.18
2017-09-19T10:11:40.176Z,34.71
2017-09-19T10:12:49.845Z,34.44
2017-09-19T10:13:58.859Z,34.33
2017-09-19T10:15:08.518Z,34.71
2017-09-19T10:16:17.533Z,34.81
2017-09-19T10:17:26.550Z,35
2017-09-19T10:18:35.250Z,35.28
2017-09-19T10:19:44.914Z,35.57
2017-09-19T10:20:53.927Z,35.76
2017-09-19T10:22:02.942Z,35.57
2017-09-19T10:23:12.005Z,36.22
2017-09-19T10:24:20.983Z,36.03
2017-09-19T10:25:30.000Z,35.94
2017-09-19T10:26:39.334Z,36.03
2017-09-19T10:27:48.031Z,36.42
2017-09-19T10:28:57.369Z,36.13
2017-09-19T10:30:06.704Z,36.61
2017-09-19T10:31:15.721Z,36.32
2017-09-19T10:32:25.057Z,36.52
2017-09-19T10:33:34.717Z,37.08
2017-09-19T10:34:44.061Z,36.79
2017-09-19T10:35:52.757Z,37.17
2017-09-19T10:37:01.454Z,37.17
2017-09-19T10:38:10.799Z,36.98
2017-09-19T10:39:19.493Z,37.08
2017-09-19T10:40:28.509Z,37.08
2017-09-19T10:41:37.850Z,37.27
2017-09-19T10:42:46.867Z,37.37
2017-09-19T10:43:55.561Z,37.83
2017-09-19T10:45:04.896Z,37.45
2017-09-19T10:46:14.252Z,37.56
2017-09-19T10:47:23.589Z,37.54
2017-09-19T10:48:33.242Z,37.54
2017-09-19T10:49:42.260Z,37.63
2017-09-19T10:50:50.955Z,38.02
2017-09-19T10:51:59.649Z,37.93
2017-09-19T10:53:08.987Z,38.02
2017-09-19T10:54:18.644Z,38.02
2017-09-19T10:55:27.656Z,38.12
2017-09-19T10:56:36.994Z,38.02
2017-09-19T10:57:46.016Z,37.93
2017-09-19T10:58:55.359Z,38.21
2017-09-19T11:00:04.067Z,38.02
2017-09-19T11:01:13.084Z,38.12
2017-09-19T11:02:21.782Z,38.12
2017-09-19T11:03:30.799Z,38.12
2017-09-19T11:04:39.497Z,38.21
2017-09-19T11:05:49.476Z,38.21
2017-09-19T11:06:58.496Z,38.12
2017-09-19T11:08:07.190Z,38.12
2017-09-19T11:09:16.205Z,38.02
2017-09-19T11:10:25.220Z,38.02
2017-09-19T11:11:34.562Z,37.93
2017-09-19T11:12:43.576Z,37.93
2017-09-19T11:13:52.597Z,38.02
2017-09-19T11:15:01.933Z,38.21
2017-09-19T11:16:10.629Z,37.83
2017-09-19T11:17:19.324Z,38.12
2017-09-19T11:18:28.339Z,38.21
2017-09-19T11:19:37.674Z,38.02
2017-09-19T11:20:47.010Z,38.02
2017-09-19T11:21:56.037Z,38.12
2017-09-19T11:23:05.053Z,38.02
2017-09-19T11:24:14.068Z,38.12
2017-09-19T11:25:23.403Z,37.63
2017-09-19T11:26:32.103Z,37.65
2017-09-19T11:27:41.441Z,37.27
2017-09-19T11:28:51.096Z,37.46
2017-09-19T11:29:59.791Z,36.69
2017-09-19T11:31:09.126Z,36.13
2017-09-19T11:32:18.460Z,35.08
2017-09-19T11:33:27.796Z,34.42
2017-09-19T11:34:36.493Z,34.25
2017-09-19T11:35:45.834Z,33.47
2017-09-19T11:36:55.489Z,32.71
2017-09-19T11:38:04.183Z,31.49
2017-09-19T11:39:12.881Z,30.34
2017-09-19T11:40:22.541Z,29
2017-09-19T11:41:31.559Z,28.91
2017-09-19T11:42:40.572Z,28.93
2017-09-19T11:43:49.912Z,28.64
2017-09-19T11:44:58.932Z,29.12
2017-09-19T11:46:07.947Z,29.4
2017-09-19T11:47:17.286Z,29.6
2017-09-19T11:48:26.304Z,29.79
2017-09-19T11:49:35.003Z,30.26
2017-09-19T11:50:44.344Z,30.55
2017-09-19T11:51:54.001Z,31.21
2017-09-19T11:53:03.337Z,31.02
2017-09-19T11:54:12.353Z,31.2
2017-09-19T11:55:21.688Z,31.1
2017-09-19T11:56:30.702Z,31.01
2017-09-19T11:57:40.037Z,31.31
2017-09-19T11:58:49.371Z,30.92
2017-09-19T11:59:58.707Z,31.2
2017-09-19T12:01:07.726Z,31.59
2017-09-19T12:02:16.741Z,31.78
2017-09-19T12:03:25.755Z,32.44
2017-09-19T12:04:35.089Z,32.64
2017-09-19T12:05:44.423Z,33.12
2017-09-19T12:06:53.757Z,33.29
2017-09-19T12:08:02.461Z,33.47
2017-09-19T12:09:11.480Z,33.67
2017-09-19T12:10:20.499Z,33.86
2017-09-19T12:11:29.544Z,34.33
2017-09-19T12:12:39.206Z,34.23
2017-09-19T12:13:48.225Z,34.91
2017-09-19T12:14:56.920Z,34.91
2017-09-19T12:16:05.618Z,35.2
2017-09-19T12:17:14.634Z,35.2
2017-09-19T12:18:23.648Z,34.89
2017-09-19T12:19:32.344Z,34.99
2017-09-19T12:20:41.363Z,35.57
2017-09-19T12:21:50.382Z,35.66
2017-09-19T12:22:59.716Z,35.86
2017-09-19T12:24:09.056Z,36.24
2017-09-19T12:25:18.070Z,35.84
2017-09-19T12:26:27.090Z,36.03
2017-09-19T12:27:36.752Z,35.95
2017-09-19T12:28:45.447Z,35.94
2017-09-19T12:29:54.146Z,36.03
2017-09-19T12:31:02.843Z,35.94
2017-09-19T12:32:11.860Z,36.13
2017-09-19T12:33:20.873Z,36.13
2017-09-19T12:34:30.529Z,36.32
2017-09-19T12:35:39.223Z,36.22
2017-09-19T12:36:48.571Z,36.13
2017-09-19T12:37:57.589Z,36.42
2017-09-19T12:39:06.284Z,36.61
2017-09-19T12:40:15.940Z,36.32
2017-09-19T12:41:24.954Z,36.52
2017-09-19T12:42:34.613Z,36.42
2017-09-19T12:43:43.312Z,36.71
2017-09-19T12:44:52.007Z,36.61
2017-09-19T12:46:01.021Z,36.71
2017-09-19T12:47:09.718Z,36.8
2017-09-19T12:48:18.737Z,36.8
2017-09-19T12:49:27.433Z,37.29
2017-09-19T12:50:36.768Z,37.19
2017-09-19T12:51:45.785Z,36.69
2017-09-19T12:52:54.480Z,37.29
2017-09-19T12:54:03.500Z,36.71
2017-09-19T12:55:12.835Z,37.1
2017-09-19T12:56:21.531Z,36.9
2017-09-19T12:57:30.548Z,36.61
2017-09-19T12:58:39.243Z,36.52
2017-09-19T12:59:48.262Z,36.22
2017-09-19T13:00:57.275Z,36.32
2017-09-19T13:02:06.611Z,36.03
2017-09-19T13:03:15.305Z,35.95
2017-09-19T13:04:24.319Z,36.05
2017-09-19T13:05:33.686Z,35.95
2017-09-19T13:06:43.023Z,35.95
2017-09-19T13:07:52.045Z,36.05
2017-09-19T13:09:01.701Z,36.34
2017-09-19T13:10:10.717Z,36.44
2017-09-19T13:11:19.730Z,36.34
2017-09-19T13:12:29.387Z,36.22
2017-09-19T13:13:38.741Z,36.44
2017-09-19T13:14:47.438Z,36.52
2017-09-19T13:15:57.094Z,37.6
2017-09-19T13:17:06.117Z,37.67
2017-09-19T13:18:15.133Z,37.3
2017-09-19T13:19:24.151Z,37.38
2017-09-19T13:20:33.171Z,37.48
2017-09-19T13:21:42.180Z,37.4
2017-09-19T13:22:51.837Z,37.3
2017-09-19T13:24:01.172Z,37.5
2017-09-19T13:25:10.215Z,37.3
2017-09-19T13:26:19.877Z,37.6
2017-09-19T13:27:28.893Z,37.29
2017-09-19T13:28:37.915Z,37.7
2017-09-19T13:29:47.568Z,37.7
2017-09-19T13:30:56.582Z,37.48
2017-09-19T13:32:05.918Z,37.79
2017-09-19T13:33:14.616Z,37.77
2017-09-19T13:34:23.314Z,37.67
2017-09-19T13:35:32.656Z,37.77
2017-09-19T13:36:42.321Z,37.77
2017-09-19T13:37:51.976Z,37.96
2017-09-19T13:39:00.994Z,38.16
2017-09-19T13:40:10.330Z,38.16
2017-09-19T13:41:19.355Z,38.16
2017-09-19T13:42:29.015Z,38.25
2017-09-19T13:43:37.708Z,38.25
2017-09-19T13:44:47.044Z,38.06
2017-09-19T13:45:55.739Z,38.45
2017-09-19T13:47:04.761Z,38.54
2017-09-19T13:48:13.780Z,38.71
2017-09-19T13:49:22.798Z,38.71
2017-09-19T13:50:32.137Z,39.01
2017-09-19T13:51:41.477Z,39.01
2017-09-19T13:52:50.176Z,39.01
2017-09-19T13:53:58.871Z,38.91
2017-09-19T13:55:08.223Z,39.11
2017-09-19T13:56:17.237Z,39.11
2017-09-19T13:57:26.891Z,39.29
2017-09-19T13:58:36.559Z,39.01
2017-09-19T13:59:45.584Z,39.11
2017-09-19T14:00:54.612Z,39.22
2017-09-19T14:02:03.627Z,39.2
2017-09-19T14:03:12.647Z,39.29
2017-09-19T14:04:22.619Z,39.29
2017-09-19T14:05:31.959Z,39.2
2017-09-19T14:06:41.290Z,39.61
2017-09-19T14:07:50.305Z,39.29
2017-09-19T14:08:59.005Z,39.11
2017-09-19T14:10:08.031Z,39.8
2017-09-19T14:11:16.727Z,39.78
2017-09-19T14:12:26.064Z,40.45
2017-09-19T14:13:35.082Z,40.45
2017-09-19T14:14:43.779Z,39.78
2017-09-19T14:15:52.794Z,39.87
2017-09-19T14:17:02.128Z,39.78
2017-09-19T14:18:11.475Z,39.8
2017-09-19T14:19:20.173Z,39.9
2017-09-19T14:20:29.510Z,39.8
2017-09-19T14:21:39.168Z,39.51
2017-09-19T14:22:47.862Z,39.61
2017-09-19T14:23:56.879Z,39.7
2017-09-19T14:25:05.579Z,39.8
2017-09-19T14:26:14.919Z,39.7
2017-09-19T14:27:24.575Z,39.69
2017-09-19T14:28:33.597Z,40.19
2017-09-19T14:29:42.931Z,40.09
2017-09-19T14:30:51.950Z,39.97
2017-09-19T14:32:00.970Z,39.51
2017-09-19T14:33:10.308Z,40.09
2017-09-19T14:34:19.007Z,40.19
2017-09-19T14:35:28.661Z,39.8
2017-09-19T14:36:37.680Z,40.38
2017-09-19T14:37:46.384Z,40.77
2017-09-19T14:38:55.720Z,40.28
2017-09-19T14:40:04.417Z,40.94
2017-09-19T14:41:13.434Z,40.86
2017-09-19T14:42:22.450Z,40.38
2017-09-19T14:43:31.472Z,40.38
2017-09-19T14:44:40.485Z,40.19
2017-09-19T14:45:49.501Z,40.96
2017-09-19T14:46:58.836Z,40.57
2017-09-19T14:48:07.852Z,41.05
2017-09-19T14:49:16.867Z,40.77
2017-09-19T14:50:26.204Z,40.57
2017-09-19T14:51:35.220Z,41.05
2017-09-19T14:52:44.556Z,41.05